Time;durP1;ratioP1;P1;durP2;ratioP2;P2;SDS_P1;SDS_P2;PMS_P1;PMS_P2;Temp;Humidity;BMP_temperature;BMP_pressure;BME280_temperature;BME280_humidity;BME280_pressure;Samples;Min_cycle;Max_cycle;Signal;HPM_P1;HPM_P2
2022/01/28 00:01:00;;;;;;;11.38;2.78;;;;;;;;;;5038378;28;20103;-65
2022/01/28 00:03:27;;;;;;;15.00;2.97;;;;;;;;;;5048502;28;20040;-65
2022/01/28 00:05:53;;;;;;;10.70;2.60;;;;;;;;;;5047922;28;20025;-65
2022/01/28 00:08:19;;;;;;;9.55;2.72;;;;;;;;;;5024484;28;20060;-65
2022/01/28 00:10:45;;;;;;;13.57;3.15;;;;;;;;;;5043924;28;20203;-65
2022/01/28 00:39:09;;;;;;;7.80;2.53;;;;;;;;;;5049212;28;20041;-66
2022/01/28 00:41:35;;;;;;;10.23;3.15;;;;;;;;;;5048464;28;20119;-65
2022/01/28 00:44:01;;;;;;;11.13;2.42;;;;;;;;;;5048951;28;20107;-64
2022/01/28 00:46:27;;;;;;;7.93;1.90;;;;;;;;;;5048155;28;20883;-65
2022/01/28 00:48:53;;;;;;;6.45;2.45;;;;;;;;;;5047784;28;20025;-64
2022/01/28 00:51:19;;;;;;;7.88;2.80;;;;;;;;;;5047914;28;20112;-64
2022/01/28 00:53:45;;;;;;;11.45;2.58;;;;;;;;;;5048637;28;20100;-64
2022/01/28 00:56:11;;;;;;;8.32;2.35;;;;;;;;;;5047009;28;20044;-65
2022/01/28 00:58:37;;;;;;;8.25;1.90;;;;;;;;;;5046512;28;20109;-65
2022/01/28 01:01:03;;;;;;;12.43;2.60;;;;;;;;;;5046962;28;20507;-66
2022/01/28 01:03:29;;;;;;;9.20;2.53;;;;;;;;;;5046308;28;20100;-65
2022/01/28 01:05:55;;;;;;;8.32;2.53;;;;;;;;;;5046801;28;20048;-65
2022/01/28 01:08:22;;;;;;;9.20;2.05;;;;;;;;;;5046412;28;20491;-65
2022/01/28 01:10:49;;;;;;;10.57;2.90;;;;;;;;;;5047344;28;20029;-64
2022/01/28 01:13:16;;;;;;;30.23;3.90;;;;;;;;;;5047859;28;20038;-65
2022/01/28 01:15:45;;;;;;;25.35;3.42;;;;;;;;;;5046853;28;20322;-65
2022/01/28 01:18:40;;;;;;;24.58;4.07;;;;;;;;;;5044894;28;20055;-63
2022/01/28 01:23:31;;;;;;;23.90;3.13;;;;;;;;;;5052553;28;20049;-65
2022/01/28 01:28:33;;;;;;;18.70;2.92;;;;;;;;;;5047402;28;19909;-65
2022/01/28 01:31:01;;;;;;;15.50;2.53;;;;;;;;;;5047739;28;20660;-64
2022/01/28 01:33:31;;;;;;;20.92;3.90;;;;;;;;;;5048648;28;20550;-65
2022/01/28 01:36:01;;;;;;;16.55;3.03;;;;;;;;;;5035199;28;20647;-65
2022/01/28 01:38:31;;;;;;;16.38;2.45;;;;;;;;;;5047832;28;20029;-65
2022/01/28 01:41:00;;;;;;;19.20;2.90;;;;;;;;;;5047910;28;20115;-64
2022/01/28 01:54:00;;;;;;;17.13;3.20;;;;;;;;;;5035928;28;20040;-65
2022/01/28 01:56:26;;;;;;;15.32;2.67;;;;;;;;;;5047052;28;20140;-66
2022/01/28 01:58:52;;;;;;;14.32;2.70;;;;;;;;;;5045946;28;20060;-66
2022/01/28 02:01:19;;;;;;;13.43;2.28;;;;;;;;;;5045442;28;20017;-66
2022/01/28 02:03:45;;;;;;;17.00;3.17;;;;;;;;;;5045343;28;20052;-66
2022/01/28 02:06:12;;;;;;;12.27;2.65;;;;;;;;;;5045254;28;20071;-66
2022/01/28 02:08:38;;;;;;;16.67;3.25;;;;;;;;;;5044794;28;20029;-66
2022/01/28 02:11:04;;;;;;;13.70;2.53;;;;;;;;;;5045383;28;20482;-66
2022/01/28 02:13:31;;;;;;;18.92;2.88;;;;;;;;;;5045563;28;20540;-66
2022/01/28 02:15:58;;;;;;;11.40;2.15;;;;;;;;;;5046646;28;20441;-65
2022/01/28 02:18:25;;;;;;;11.65;3.03;;;;;;;;;;5046857;28;20434;-65
2022/01/28 02:20:54;;;;;;;15.68;2.22;;;;;;;;;;5045968;28;20108;-66
2022/01/28 02:23:22;;;;;;;15.87;2.63;;;;;;;;;;5030768;28;20476;-66
2022/01/28 02:25:48;;;;;;;9.20;2.35;;;;;;;;;;5040827;28;20263;-66
2022/01/28 02:28:17;;;;;;;18.83;2.75;;;;;;;;;;5045457;28;20685;-66
2022/01/28 02:30:44;;;;;;;14.73;3.15;;;;;;;;;;5041511;28;20128;-66
2022/01/28 02:33:17;;;;;;;12.30;2.55;;;;;;;;;;5031769;28;20124;-67
2022/01/28 02:35:43;;;;;;;17.23;3.45;;;;;;;;;;5045476;28;20487;-66
2022/01/28 02:38:10;;;;;;;13.05;2.78;;;;;;;;;;5045454;28;20025;-67
2022/01/28 02:40:37;;;;;;;13.30;3.05;;;;;;;;;;5046164;28;20487;-66
2022/01/28 02:43:23;;;;;;;13.10;2.70;;;;;;;;;;5046432;28;20113;-66
2022/01/28 02:45:52;;;;;;;11.70;3.00;;;;;;;;;;5044847;28;20052;-65
2022/01/28 02:48:22;;;;;;;11.85;2.38;;;;;;;;;;5046874;28;20089;-66
2022/01/28 02:53:26;;;;;;;10.07;2.42;;;;;;;;;;5041908;28;20037;-66
2022/01/28 02:55:59;;;;;;;9.88;2.47;;;;;;;;;;5048815;28;20037;-65
2022/01/28 02:58:26;;;;;;;12.07;2.13;;;;;;;;;;5049324;28;20025;-64
2022/01/28 03:00:56;;;;;;;10.52;2.65;;;;;;;;;;5049787;28;20032;-64
2022/01/28 03:03:23;;;;;;;10.52;2.10;;;;;;;;;;5050568;28;20098;-63
2022/01/28 03:05:53;;;;;;;9.32;2.63;;;;;;;;;;5050083;28;20120;-65
2022/01/28 03:08:22;;;;;;;14.05;2.65;;;;;;;;;;5050107;28;20394;-65
2022/01/28 03:11:18;;;;;;;15.60;2.50;;;;;;;;;;5050160;28;20031;-65
2022/01/28 03:16:22;;;;;;;9.52;2.10;;;;;;;;;;5050384;28;20036;-65
2022/01/28 03:18:55;;;;;;;13.10;2.78;;;;;;;;;;5049547;28;20509;-64
2022/01/28 03:23:51;;;;;;;11.20;2.05;;;;;;;;;;5050141;28;20037;-65
2022/01/28 03:26:19;;;;;;;9.25;3.15;;;;;;;;;;5049662;28;20065;-64
2022/01/28 03:28:45;;;;;;;7.97;1.70;;;;;;;;;;5049908;28;20075;-65
2022/01/28 03:31:11;;;;;;;10.20;2.42;;;;;;;;;;5049445;28;20068;-65
2022/01/28 03:33:37;;;;;;;9.68;2.75;;;;;;;;;;5049398;28;21382;-65
2022/01/28 03:36:07;;;;;;;11.25;2.33;;;;;;;;;;5049250;28;20048;-65
2022/01/28 03:38:33;;;;;;;16.00;3.03;;;;;;;;;;5049892;28;20025;-65
2022/01/28 03:40:59;;;;;;;11.82;2.17;;;;;;;;;;5049341;28;20029;-65
2022/01/28 03:43:25;;;;;;;14.48;2.20;;;;;;;;;;5049349;28;20029;-65
2022/01/28 03:45:51;;;;;;;7.43;2.17;;;;;;;;;;5049570;28;20041;-65
2022/01/28 03:48:17;;;;;;;16.17;3.08;;;;;;;;;;5049218;28;20825;-65
2022/01/28 03:50:43;;;;;;;11.52;2.75;;;;;;;;;;5048684;28;20124;-65
2022/01/28 03:53:09;;;;;;;13.25;2.47;;;;;;;;;;5049150;28;20025;-65
2022/01/28 03:55:36;;;;;;;8.32;1.67;;;;;;;;;;5049335;28;20120;-65
2022/01/28 03:58:02;;;;;;;14.40;2.40;;;;;;;;;;5049202;28;20478;-65
2022/01/28 04:00:30;;;;;;;11.00;2.47;;;;;;;;;;5047995;28;20507;-65
2022/01/28 04:03:23;;;;;;;14.68;3.00;;;;;;;;;;5048752;28;20029;-65
2022/01/28 04:13:52;;;;;;;13.07;2.15;;;;;;;;;;5048233;28;20027;-66
2022/01/28 04:18:49;;;;;;;10.07;2.42;;;;;;;;;;5047157;28;20029;-65
2022/01/28 04:21:15;;;;;;;10.25;2.13;;;;;;;;;;5047361;28;20074;-65
2022/01/28 04:23:41;;;;;;;10.73;2.35;;;;;;;;;;5047720;28;20082;-65
2022/01/28 04:26:07;;;;;;;11.43;2.53;;;;;;;;;;5048293;28;20025;-65
2022/01/28 04:28:33;;;;;;;13.68;2.60;;;;;;;;;;5048236;28;20075;-66
2022/01/28 04:30:59;;;;;;;11.10;1.77;;;;;;;;;;5047651;28;20116;-67
2022/01/28 04:33:26;;;;;;;5.15;1.70;;;;;;;;;;5048946;28;20157;-66
2022/01/28 04:35:54;;;;;;;10.48;2.53;;;;;;;;;;5047989;28;20021;-66
2022/01/28 04:41:04;;;;;;;9.05;1.63;;;;;;;;;;5043521;28;20033;-66
2022/01/28 04:43:40;;;;;;;9.43;1.70;;;;;;;;;;5047808;28;20033;-66
2022/01/28 04:46:14;;;;;;;8.82;1.65;;;;;;;;;;5047446;28;20025;-65
2022/01/28 04:48:49;;;;;;;8.80;2.00;;;;;;;;;;5048251;28;20037;-66
2022/01/28 04:51:44;;;;;;;9.38;2.25;;;;;;;;;;5047049;28;20037;-66
2022/01/28 04:57:12;;;;;;;7.13;2.00;;;;;;;;;;5047877;28;20044;-67
2022/01/28 05:00:07;;;;;;;9.80;1.85;;;;;;;;;;5047813;28;20139;-66
2022/01/28 05:05:30;;;;;;;7.70;1.88;;;;;;;;;;5047270;28;20502;-66
2022/01/28 05:11:08;;;;;;;10.85;1.55;;;;;;;;;;5047277;28;20087;-65
2022/01/28 05:27:17;;;;;;;9.57;1.83;;;;;;;;;;5045966;28;20051;-65
2022/01/28 05:29:43;;;;;;;9.02;1.88;;;;;;;;;;5047518;28;20025;-65
2022/01/28 05:32:09;;;;;;;14.50;2.13;;;;;;;;;;5047371;28;20502;-65
2022/01/28 05:34:35;;;;;;;9.63;2.25;;;;;;;;;;5047492;28;20560;-66
2022/01/28 05:37:01;;;;;;;18.50;3.25;;;;;;;;;;5046992;28;20075;-66
2022/01/28 05:39:27;;;;;;;5.30;1.58;;;;;;;;;;5047238;28;20075;-66
2022/01/28 05:41:53;;;;;;;9.77;1.63;;;;;;;;;;5047433;28;20029;-66
2022/01/28 05:44:20;;;;;;;6.63;1.83;;;;;;;;;;5047113;28;20031;-66
2022/01/28 05:46:47;;;;;;;9.75;2.15;;;;;;;;;;5047270;28;20071;-65
2022/01/28 05:49:13;;;;;;;10.07;1.60;;;;;;;;;;5046884;28;20052;-64
2022/01/28 05:51:39;;;;;;;11.73;2.10;;;;;;;;;;5046876;28;20045;-66
2022/01/28 05:54:06;;;;;;;12.30;1.80;;;;;;;;;;5047729;28;20109;-66
2022/01/28 05:56:32;;;;;;;15.32;2.85;;;;;;;;;;5040636;28;20116;-65
2022/01/28 05:58:59;;;;;;;9.85;2.05;;;;;;;;;;5040796;28;20676;-65
2022/01/28 06:01:25;;;;;;;9.15;1.85;;;;;;;;;;5038115;28;20535;-65
2022/01/28 06:03:51;;;;;;;12.25;2.42;;;;;;;;;;5039763;28;20029;-65
2022/01/28 06:06:21;;;;;;;17.08;2.05;;;;;;;;;;5037075;28;20024;-65
2022/01/28 06:08:48;;;;;;;14.63;2.58;;;;;;;;;;5043653;28;20029;-66
2022/01/28 06:11:15;;;;;;;16.10;2.33;;;;;;;;;;5041053;28;20505;-65
2022/01/28 06:13:41;;;;;;;11.10;2.13;;;;;;;;;;5038214;28;20034;-66
2022/01/28 06:16:08;;;;;;;8.75;1.70;;;;;;;;;;5037491;28;20025;-66
2022/01/28 06:18:34;;;;;;;15.15;2.47;;;;;;;;;;5042020;28;20028;-65
2022/01/28 06:21:00;;;;;;;12.60;2.55;;;;;;;;;;5042650;28;20376;-65
2022/01/28 06:23:26;;;;;;;11.65;1.67;;;;;;;;;;5043322;28;20704;-65
2022/01/28 06:25:52;;;;;;;15.20;2.20;;;;;;;;;;5045836;28;20083;-66
2022/01/28 06:28:18;;;;;;;13.38;2.10;;;;;;;;;;5050457;28;20049;-65
2022/01/28 06:30:44;;;;;;;12.10;2.50;;;;;;;;;;5035510;28;20025;-65
2022/01/28 06:33:14;;;;;;;11.40;2.05;;;;;;;;;;5038831;28;20973;-67
2022/01/28 06:35:40;;;;;;;;;;;;;;;;;;5050654;28;20029;-66
2022/01/28 06:38:06;;;;;;;11.77;2.15;;;;;;;;;;5050383;28;20473;-66
2022/01/28 06:40:32;;;;;;;12.98;2.20;;;;;;;;;;5050509;28;20021;-66
2022/01/28 06:42:58;;;;;;;11.95;2.05;;;;;;;;;;5050259;28;20021;-67
2022/01/28 06:45:24;;;;;;;7.55;1.95;;;;;;;;;;5050091;28;20136;-65
2022/01/28 06:47:50;;;;;;;10.00;1.70;;;;;;;;;;5049889;28;20132;-66
2022/01/28 06:50:17;;;;;;;13.70;1.83;;;;;;;;;;5050449;28;20441;-66
2022/01/28 06:52:44;;;;;;;9.65;2.10;;;;;;;;;;5050622;28;20116;-67
2022/01/28 06:55:11;;;;;;;7.82;1.77;;;;;;;;;;5050697;28;20033;-66
2022/01/28 06:57:37;;;;;;;17.63;2.35;;;;;;;;;;5050299;28;20036;-66
2022/01/28 07:00:05;;;;;;;15.55;3.38;;;;;;;;;;5050235;28;20025;-66
2022/01/28 07:02:31;;;;;;;11.77;2.28;;;;;;;;;;5050426;28;20029;-65
2022/01/28 07:04:57;;;;;;;9.05;2.25;;;;;;;;;;5050619;28;20098;-64
2022/01/28 07:07:25;;;;;;;11.43;2.25;;;;;;;;;;5050007;28;20029;-65
2022/01/28 07:09:52;;;;;;;14.40;2.00;;;;;;;;;;5050298;28;20186;-65
2022/01/28 07:12:18;;;;;;;7.78;2.45;;;;;;;;;;5050497;28;20043;-66
2022/01/28 07:14:44;;;;;;;14.55;2.92;;;;;;;;;;5048959;28;20029;-66
2022/01/28 07:17:10;;;;;;;14.05;2.47;;;;;;;;;;5050107;28;20398;-66
2022/01/28 07:19:37;;;;;;;10.43;1.80;;;;;;;;;;5047832;28;20121;-66
2022/01/28 07:22:03;;;;;;;14.32;2.42;;;;;;;;;;5046474;28;20486;-66
2022/01/28 07:24:29;;;;;;;14.60;3.17;;;;;;;;;;5046170;28;20048;-66
2022/01/28 07:26:55;;;;;;;14.48;3.03;;;;;;;;;;5046195;28;20025;-66
2022/01/28 07:29:22;;;;;;;14.40;2.25;;;;;;;;;;5040994;28;20029;-66
2022/01/28 07:31:49;;;;;;;16.98;2.35;;;;;;;;;;5036084;28;20781;-66
2022/01/28 07:34:15;;;;;;;12.13;2.40;;;;;;;;;;5038752;28;20025;-65
2022/01/28 07:36:41;;;;;;;9.18;1.90;;;;;;;;;;5035111;28;20028;-65
2022/01/28 07:39:07;;;;;;;11.07;2.20;;;;;;;;;;5032629;28;20092;-66
2022/01/28 07:41:34;;;;;;;10.90;2.15;;;;;;;;;;5035367;28;20067;-66
2022/01/28 07:44:00;;;;;;;7.88;1.67;;;;;;;;;;5038242;28;20025;-67
2022/01/28 07:46:26;;;;;;;13.60;2.95;;;;;;;;;;5039095;28;20069;-66
2022/01/28 07:48:52;;;;;;;9.10;2.63;;;;;;;;;;5039376;28;20471;-67
2022/01/28 07:51:18;;;;;;;12.77;2.00;;;;;;;;;;5043906;28;20037;-68
2022/01/28 07:53:44;;;;;;;11.82;3.15;;;;;;;;;;5038558;28;20033;-68
2022/01/28 07:56:12;;;;;;;10.30;2.20;;;;;;;;;;5045279;28;20479;-67
2022/01/28 07:58:38;;;;;;;10.35;2.13;;;;;;;;;;5038040;28;20498;-69
2022/01/28 08:01:04;;;;;;;15.93;2.42;;;;;;;;;;5043890;28;20799;-67
2022/01/28 08:03:30;;;;;;;10.23;2.30;;;;;;;;;;5043551;28;20116;-68
2022/01/28 08:05:56;;;;;;;10.25;2.58;;;;;;;;;;5047464;28;20074;-67
2022/01/28 08:08:22;;;;;;;8.98;2.10;;;;;;;;;;5036208;28;20025;-67
2022/01/28 08:10:48;;;;;;;9.90;2.75;;;;;;;;;;5047984;28;20052;-69
2022/01/28 08:13:15;;;;;;;14.50;2.42;;;;;;;;;;5048694;28;20393;-68
2022/01/28 08:15:41;;;;;;;11.23;2.30;;;;;;;;;;5048270;28;20392;-68
2022/01/28 08:18:08;;;;;;;8.20;2.30;;;;;;;;;;5046175;28;20129;-68
2022/01/28 08:20:34;;;;;;;12.10;2.65;;;;;;;;;;5045910;28;20310;-68
2022/01/28 08:23:01;;;;;;;12.55;2.40;;;;;;;;;;5047965;28;20589;-67
2022/01/28 08:25:28;;;;;;;9.13;2.42;;;;;;;;;;5048175;28;20184;-68
2022/01/28 08:27:54;;;;;;;7.20;1.75;;;;;;;;;;5048331;28;20025;-66
2022/01/28 08:30:22;;;;;;;12.32;2.50;;;;;;;;;;5047825;28;20386;-67
2022/01/28 08:32:49;;;;;;;12.30;2.58;;;;;;;;;;5047739;28;20380;-67
2022/01/28 08:35:15;;;;;;;14.23;2.88;;;;;;;;;;5048084;28;20112;-67
2022/01/28 08:37:41;;;;;;;11.48;2.25;;;;;;;;;;5048371;28;20099;-68
2022/01/28 08:40:09;;;;;;;10.27;2.90;;;;;;;;;;5048879;28;20025;-68
2022/01/28 08:42:35;;;;;;;8.70;3.20;;;;;;;;;;5045156;28;20029;-66
2022/01/28 08:45:01;;;;;;;9.20;2.60;;;;;;;;;;5041770;28;20036;-65
2022/01/28 08:47:27;;;;;;;8.73;2.47;;;;;;;;;;5047636;28;20106;-68
2022/01/28 08:49:53;;;;;;;8.85;2.30;;;;;;;;;;5039610;28;20025;-66
2022/01/28 08:52:19;;;;;;;11.02;2.65;;;;;;;;;;5039173;28;20087;-66
2022/01/28 08:54:47;;;;;;;9.73;3.17;;;;;;;;;;5039621;28;20534;-64
2022/01/28 08:57:13;;;;;;;12.38;3.58;;;;;;;;;;5037746;28;20404;-65
2022/01/28 08:59:42;;;;;;;11.68;2.97;;;;;;;;;;5045047;28;20111;-66
2022/01/28 09:02:08;;;;;;;13.30;3.15;;;;;;;;;;5043153;28;20037;-66
2022/01/28 09:04:34;;;;;;;11.77;3.08;;;;;;;;;;5046425;28;20407;-66
2022/01/28 09:07:01;;;;;;;10.55;2.75;;;;;;;;;;5048243;28;20079;-67
2022/01/28 09:09:29;;;;;;;14.90;3.28;;;;;;;;;;5048272;28;20143;-67
2022/01/28 09:14:24;;;;;;;9.60;2.88;;;;;;;;;;5046954;28;20021;-66
2022/01/28 09:16:50;;;;;;;10.30;2.67;;;;;;;;;;5044905;28;20414;-66
2022/01/28 09:19:16;;;;;;;11.00;2.30;;;;;;;;;;5046265;28;20025;-66
2022/01/28 09:21:42;;;;;;;10.32;2.70;;;;;;;;;;5046132;28;20604;-66
2022/01/28 09:24:08;;;;;;;10.50;2.58;;;;;;;;;;5045334;28;20052;-66
2022/01/28 09:26:34;;;;;;;10.38;2.40;;;;;;;;;;5045491;28;20035;-66
2022/01/28 09:29:00;;;;;;;12.80;2.50;;;;;;;;;;5044902;28;20095;-66
2022/01/28 09:31:26;;;;;;;10.27;2.22;;;;;;;;;;5045451;28;20064;-66
2022/01/28 09:33:52;;;;;;;9.77;3.00;;;;;;;;;;5045300;28;20380;-66
2022/01/28 09:36:19;;;;;;;6.97;2.05;;;;;;;;;;5045921;28;20087;-66
2022/01/28 09:38:51;;;;;;;11.00;2.58;;;;;;;;;;5046396;28;20024;-66
2022/01/28 09:44:19;;;;;;;11.95;3.70;;;;;;;;;;5046137;28;20450;-67
2022/01/28 09:46:45;;;;;;;7.60;1.92;;;;;;;;;;5046670;28;20114;-66
2022/01/28 09:49:14;;;;;;;8.10;2.42;;;;;;;;;;5041354;28;20143;-66
2022/01/28 09:51:40;;;;;;;11.50;2.90;;;;;;;;;;5041722;28;20138;-67
2022/01/28 09:54:07;;;;;;;12.50;2.90;;;;;;;;;;5039199;28;20037;-66
2022/01/28 09:56:33;;;;;;;11.40;2.42;;;;;;;;;;5038314;28;20081;-66
2022/01/28 09:58:59;;;;;;;7.20;2.17;;;;;;;;;;5028859;28;20750;-66
2022/01/28 10:01:26;;;;;;;8.98;2.47;;;;;;;;;;5047782;28;20040;-66
2022/01/28 10:04:04;;;;;;;13.02;2.90;;;;;;;;;;5041488;28;20579;-66
2022/01/28 10:06:32;;;;;;;10.95;2.30;;;;;;;;;;5044837;28;20025;-67
2022/01/28 10:09:01;;;;;;;8.10;2.80;;;;;;;;;;5038194;28;20108;-65
2022/01/28 10:11:27;;;;;;;7.22;2.25;;;;;;;;;;5041558;28;20960;-67
2022/01/28 10:13:56;;;;;;;9.32;2.55;;;;;;;;;;5038795;28;20024;-66
2022/01/28 10:16:27;;;;;;;8.68;2.30;;;;;;;;;;5041813;28;20105;-66
2022/01/28 10:18:56;;;;;;;9.52;1.60;;;;;;;;;;5038517;28;20555;-67
2022/01/28 10:21:25;;;;;;;9.88;2.10;;;;;;;;;;5042956;28;20163;-67
2022/01/28 10:23:55;;;;;;;7.95;1.95;;;;;;;;;;5038181;28;20048;-66
2022/01/28 10:26:29;;;;;;;9.32;2.60;;;;;;;;;;5042122;28;20100;-67
2022/01/28 10:28:55;;;;;;;12.38;2.35;;;;;;;;;;5042160;28;20021;-66
2022/01/28 10:31:21;;;;;;;8.10;2.60;;;;;;;;;;5041352;28;20118;-67
2022/01/28 10:33:47;;;;;;;11.50;2.47;;;;;;;;;;5023656;28;20059;-67
2022/01/28 10:36:24;;;;;;;9.18;2.03;;;;;;;;;;5045585;28;20048;-67
2022/01/28 10:38:56;;;;;;;9.43;2.05;;;;;;;;;;5038504;28;20391;-67
2022/01/28 10:41:24;;;;;;;7.45;2.15;;;;;;;;;;5039969;28;20033;-67
2022/01/28 10:43:54;;;;;;;7.53;2.03;;;;;;;;;;5043148;28;20108;-66
2022/01/28 10:46:24;;;;;;;6.03;2.03;;;;;;;;;;5042715;28;20053;-65
2022/01/28 10:48:50;;;;;;;8.70;2.22;;;;;;;;;;5036117;28;20029;-66
2022/01/28 10:51:17;;;;;;;11.45;2.67;;;;;;;;;;5038201;28;20037;-65
2022/01/28 10:53:43;;;;;;;6.18;2.22;;;;;;;;;;5038962;28;20021;-66
2022/01/28 10:56:12;;;;;;;9.25;2.17;;;;;;;;;;5038832;28;20101;-67
2022/01/28 10:58:39;;;;;;;12.93;2.17;;;;;;;;;;5035800;28;20071;-65
2022/01/28 11:01:05;;;;;;;9.73;2.67;;;;;;;;;;5039601;28;20482;-67
2022/01/28 11:03:31;;;;;;;7.47;2.00;;;;;;;;;;5042871;28;20456;-66
2022/01/28 11:05:59;;;;;;;9.90;2.00;;;;;;;;;;5040452;28;20772;-69
2022/01/28 11:08:31;;;;;;;8.88;2.20;;;;;;;;;;5045114;28;20028;-67
2022/01/28 11:11:00;;;;;;;8.50;2.63;;;;;;;;;;5037634;28;20092;-66
2022/01/28 11:13:26;;;;;;;7.95;1.95;;;;;;;;;;5041987;28;20040;-67
2022/01/28 11:15:52;;;;;;;7.20;1.63;;;;;;;;;;5041059;28;20040;-67
2022/01/28 11:18:18;;;;;;;7.10;2.38;;;;;;;;;;5036297;28;20025;-69
2022/01/28 11:20:54;;;;;;;7.78;2.15;;;;;;;;;;5034241;28;20032;-66
2022/01/28 11:23:26;;;;;;;9.35;2.20;;;;;;;;;;5042187;28;20187;-66
2022/01/28 11:26:07;;;;;;;11.65;2.70;;;;;;;;;;5043185;28;20025;-67
2022/01/28 11:28:33;;;;;;;;;;;;;;;;;;5042804;28;20125;-65
2022/01/28 11:30:59;;;;;;;9.52;2.25;;;;;;;;;;5041682;28;19999;-66
2022/01/28 11:33:42;;;;;;;10.05;2.00;;;;;;;;;;5048044;28;20131;-66
2022/01/28 11:36:08;;;;;;;8.60;2.00;;;;;;;;;;5048205;28;20029;-66
2022/01/28 11:38:35;;;;;;;9.23;1.90;;;;;;;;;;5048678;28;20028;-67
2022/01/28 11:41:06;;;;;;;11.65;2.30;;;;;;;;;;5049176;28;20483;-65
2022/01/28 11:43:33;;;;;;;8.38;2.08;;;;;;;;;;5049132;28;20087;-66
2022/01/28 11:46:07;;;;;;;9.38;2.35;;;;;;;;;;5049787;28;20105;-65
2022/01/28 11:48:52;;;;;;;7.85;1.98;;;;;;;;;;5049389;28;20430;-67
2022/01/28 11:51:20;;;;;;;9.55;2.72;;;;;;;;;;5049240;28;20126;-67
2022/01/28 11:53:56;;;;;;;10.10;2.28;;;;;;;;;;5049620;28;20391;-66
2022/01/28 11:56:24;;;;;;;7.43;1.65;;;;;;;;;;5049098;28;20042;-67
2022/01/28 11:58:53;;;;;;;10.80;2.40;;;;;;;;;;5048969;28;20383;-62
2022/01/28 12:01:26;;;;;;;8.98;2.33;;;;;;;;;;5049609;28;20017;-66
2022/01/28 12:04:11;;;;;;;6.60;2.13;;;;;;;;;;5049214;28;20029;-66
2022/01/28 12:06:39;;;;;;;9.18;2.05;;;;;;;;;;5049530;28;20036;-66
2022/01/28 12:09:08;;;;;;;7.40;1.80;;;;;;;;;;5049277;28;20040;-66
2022/01/28 12:11:44;;;;;;;8.10;2.10;;;;;;;;;;5030479;28;20345;-66
2022/01/28 12:14:13;;;;;;;7.65;1.75;;;;;;;;;;5049108;28;20029;-71
2022/01/28 12:16:42;;;;;;;7.63;1.77;;;;;;;;;;5038072;28;20475;-67
2022/01/28 12:19:22;;;;;;;8.13;1.88;;;;;;;;;;5031849;28;20494;-67
2022/01/28 12:22:07;;;;;;;8.02;2.05;;;;;;;;;;5036721;28;20090;-67
2022/01/28 12:24:34;;;;;;;8.52;2.17;;;;;;;;;;5048946;28;20028;-68
2022/01/28 12:27:01;;;;;;;6.43;1.80;;;;;;;;;;5038146;28;20403;-66
2022/01/28 12:29:57;;;;;;;11.00;2.15;;;;;;;;;;5048853;28;20131;-67
2022/01/28 12:32:24;;;;;;;7.35;2.00;;;;;;;;;;5037929;28;20811;-67
2022/01/28 12:34:50;;;;;;;8.68;2.17;;;;;;;;;;5048427;28;20087;-66
2022/01/28 12:37:22;;;;;;;6.95;1.63;;;;;;;;;;5049043;28;20118;-67
2022/01/28 12:39:55;;;;;;;5.30;1.48;;;;;;;;;;5048532;28;20025;-66
2022/01/28 12:42:23;;;;;;;9.63;1.70;;;;;;;;;;5048808;28;20035;-66
2022/01/28 12:44:59;;;;;;;10.02;1.67;;;;;;;;;;5048599;28;20075;-66
2022/01/28 12:47:25;;;;;;;7.53;1.80;;;;;;;;;;5048517;28;20095;-66
2022/01/28 12:50:03;;;;;;;6.32;1.42;;;;;;;;;;5048160;28;20495;-66
2022/01/28 12:52:30;;;;;;;7.85;1.95;;;;;;;;;;5045458;28;20127;-66
2022/01/28 12:54:57;;;;;;;7.10;2.15;;;;;;;;;;5047886;28;20503;-66
2022/01/28 12:57:23;;;;;;;6.80;1.52;;;;;;;;;;5048650;28;20518;-66
2022/01/28 12:59:49;;;;;;;8.07;1.85;;;;;;;;;;5048339;28;20174;-66
2022/01/28 13:02:16;;;;;;;4.95;1.80;;;;;;;;;;5047676;28;20108;-66
2022/01/28 13:10:19;;;;;;;9.88;1.73;;;;;;;;;;5049064;28;20453;-66
2022/01/28 13:13:04;;;;;;;7.43;1.92;;;;;;;;;;5048032;28;20041;-67
2022/01/28 13:15:30;;;;;;;7.72;1.63;;;;;;;;;;5035681;28;20075;-67
2022/01/28 13:17:57;;;;;;;8.98;2.60;;;;;;;;;;5043284;28;20030;-66
2022/01/28 13:20:24;;;;;;;5.30;1.67;;;;;;;;;;5038787;28;20432;-66
2022/01/28 13:22:51;;;;;;;6.68;1.75;;;;;;;;;;5041416;28;20061;-66
2022/01/28 13:25:22;;;;;;;6.85;1.77;;;;;;;;;;5038067;28;20166;-67
2022/01/28 13:27:52;;;;;;;9.18;1.52;;;;;;;;;;5040972;28;20022;-67
2022/01/28 13:30:19;;;;;;;7.93;1.77;;;;;;;;;;5037425;28;20052;-66
2022/01/28 13:32:50;;;;;;;5.53;1.13;;;;;;;;;;5040437;28;20063;-67
2022/01/28 13:35:16;;;;;;;5.25;1.65;;;;;;;;;;5038917;28;20029;-67
2022/01/28 13:37:45;;;;;;;9.32;2.20;;;;;;;;;;5043402;28;20552;-67
2022/01/28 13:40:12;;;;;;;9.07;1.73;;;;;;;;;;5047434;28;20025;-66
2022/01/28 13:42:55;;;;;;;8.25;1.60;;;;;;;;;;5046777;28;20049;-66
2022/01/28 13:45:28;;;;;;;7.82;2.20;;;;;;;;;;5031866;28;20087;-66
2022/01/28 13:47:54;;;;;;;6.30;1.75;;;;;;;;;;5019250;28;20484;-66
2022/01/28 13:50:24;;;;;;;7.70;1.77;;;;;;;;;;5047008;28;20025;-66
2022/01/28 13:52:54;;;;;;;6.78;1.85;;;;;;;;;;5046540;28;20038;-66
2022/01/28 13:55:33;;;;;;;8.40;1.87;;;;;;;;;;5046837;28;20099;-65
2022/01/28 13:58:03;;;;;;;9.63;2.20;;;;;;;;;;5047990;28;20274;-66
2022/01/28 14:00:38;;;;;;;8.77;2.65;;;;;;;;;;5047872;28;20068;-66
2022/01/28 14:03:04;;;;;;;10.57;2.78;;;;;;;;;;5047422;28;20052;-65
2022/01/28 14:05:48;;;;;;;9.52;2.72;;;;;;;;;;5048135;28;20453;-65
2022/01/28 14:08:14;;;;;;;7.65;2.35;;;;;;;;;;5047416;28;20085;-65
2022/01/28 14:10:40;;;;;;;11.77;3.17;;;;;;;;;;5048474;28;20033;-66
2022/01/28 14:13:20;;;;;;;10.95;3.05;;;;;;;;;;5038680;28;20153;-66
2022/01/28 14:16:01;;;;;;;9.27;3.07;;;;;;;;;;5044022;28;20029;-66
2022/01/28 14:18:27;;;;;;;11.75;2.92;;;;;;;;;;5045392;28;20029;-66
2022/01/28 14:20:53;;;;;;;10.20;2.38;;;;;;;;;;5047656;28;20499;-65
2022/01/28 14:23:20;;;;;;;11.85;2.47;;;;;;;;;;5046019;28;20017;-66
2022/01/28 14:25:47;;;;;;;11.77;2.78;;;;;;;;;;5039452;28;20025;-65
2022/01/28 14:28:37;;;;;;;9.38;2.00;;;;;;;;;;5039388;28;20052;-66
2022/01/28 14:31:08;;;;;;;10.73;3.22;;;;;;;;;;5039950;28;20133;-69
2022/01/28 14:33:35;;;;;;;7.55;2.65;;;;;;;;;;5038500;28;20087;-67
2022/01/28 14:36:03;;;;;;;8.23;2.60;;;;;;;;;;5023332;28;20083;-65
2022/01/28 14:38:30;;;;;;;10.95;2.15;;;;;;;;;;5019137;28;20025;-67
2022/01/28 14:40:56;;;;;;;9.70;2.50;;;;;;;;;;5043080;28;20025;-68
2022/01/28 14:43:23;;;;;;;9.32;2.50;;;;;;;;;;5038726;28;20029;-67
2022/01/28 14:45:50;;;;;;;7.78;2.10;;;;;;;;;;5028000;28;20207;-68
2022/01/28 14:48:20;;;;;;;8.82;2.28;;;;;;;;;;5018984;28;20419;-66
2022/01/28 14:50:46;;;;;;;8.95;2.33;;;;;;;;;;5023367;28;20071;-66
2022/01/28 14:53:12;;;;;;;7.28;2.15;;;;;;;;;;5021768;28;20395;-65
2022/01/28 14:55:40;;;;;;;10.90;2.60;;;;;;;;;;5024239;28;20140;-66
2022/01/28 14:58:07;;;;;;;6.25;1.95;;;;;;;;;;5021322;28;20108;-66
2022/01/28 15:00:33;;;;;;;8.82;2.38;;;;;;;;;;5025092;28;20435;-66
2022/01/28 15:02:59;;;;;;;9.40;2.30;;;;;;;;;;5024644;28;20057;-66
2022/01/28 15:05:28;;;;;;;9.73;2.08;;;;;;;;;;5026030;28;20037;-65
2022/01/28 15:07:54;;;;;;;8.20;2.22;;;;;;;;;;5021549;28;20532;-65
2022/01/28 15:10:27;;;;;;;8.75;2.53;;;;;;;;;;5024951;28;20100;-65
2022/01/28 15:12:53;;;;;;;8.18;2.30;;;;;;;;;;5019904;28;20034;-66
2022/01/28 15:15:19;;;;;;;9.30;2.58;;;;;;;;;;5024819;28;20026;-66
2022/01/28 15:17:45;;;;;;;6.78;2.08;;;;;;;;;;5022058;28;20086;-67
2022/01/28 15:20:12;;;;;;;10.05;2.67;;;;;;;;;;5022344;28;20018;-66
2022/01/28 15:22:38;;;;;;;9.77;2.17;;;;;;;;;;5022314;28;20056;-66
2022/01/28 15:25:05;;;;;;;10.15;2.35;;;;;;;;;;5014800;28;20297;-66
2022/01/28 15:27:32;;;;;;;7.78;2.58;;;;;;;;;;5029401;28;20034;-66
2022/01/28 15:30:24;;;;;;;7.35;2.15;;;;;;;;;;5025506;28;20155;-65
2022/01/28 15:37:56;;;;;;;12.32;3.00;;;;;;;;;;5030625;28;20030;-66
2022/01/28 15:40:22;;;;;;;9.73;2.33;;;;;;;;;;5020693;28;20022;-66
2022/01/28 15:42:53;;;;;;;9.10;2.40;;;;;;;;;;5029361;28;20033;-66
2022/01/28 15:45:19;;;;;;;11.85;2.40;;;;;;;;;;5030385;28;20079;-66
2022/01/28 15:47:46;;;;;;;12.10;2.90;;;;;;;;;;5044544;28;20151;-66
2022/01/28 15:50:13;;;;;;;9.98;2.55;;;;;;;;;;5050217;28;20033;-66
2022/01/28 15:52:39;;;;;;;7.95;2.35;;;;;;;;;;5049905;28;20045;-66
2022/01/28 15:55:06;;;;;;;12.63;2.53;;;;;;;;;;5049549;28;20087;-66
2022/01/28 15:57:32;;;;;;;8.82;2.30;;;;;;;;;;5049723;28;20559;-66
2022/01/28 15:59:58;;;;;;;9.68;2.30;;;;;;;;;;5050242;28;20605;-65
2022/01/28 16:02:24;;;;;;;8.43;2.42;;;;;;;;;;5049862;28;20162;-65
2022/01/28 16:04:50;;;;;;;12.05;2.40;;;;;;;;;;5049221;28;20755;-65
2022/01/28 16:07:17;;;;;;;7.45;2.47;;;;;;;;;;5049866;28;20025;-65
2022/01/28 16:09:51;;;;;;;9.48;2.47;;;;;;;;;;5049532;28;20116;-65
2022/01/28 16:12:44;;;;;;;9.23;2.35;;;;;;;;;;5049314;28;20037;-65
2022/01/28 16:15:27;;;;;;;9.20;2.65;;;;;;;;;;5049651;28;20403;-65
2022/01/28 16:17:53;;;;;;;10.73;2.78;;;;;;;;;;5049033;28;20107;-65
2022/01/28 16:20:19;;;;;;;7.63;2.40;;;;;;;;;;5049440;28;20025;-65
2022/01/28 16:22:45;;;;;;;8.23;2.70;;;;;;;;;;5049254;28;20143;-65
2022/01/28 16:25:12;;;;;;;9.10;3.05;;;;;;;;;;5049857;28;20021;-64
2022/01/28 16:27:38;;;;;;;11.95;3.38;;;;;;;;;;5049338;28;20035;-65